createdAt,value
2022-08-17T00:02:25.517Z,48.55
2022-08-17T00:05:33.891Z,48.16
2022-08-17T00:08:45.124Z,48.16
2022-08-17T00:12:40.798Z,47.49
2022-08-17T00:15:14.537Z,47.74
2022-08-17T00:19:01.244Z,48.08
2022-08-17T00:22:14.750Z,47.31
2022-08-17T00:25:13.272Z,46.77
2022-08-17T00:28:17.936Z,46.67
2022-08-17T00:31:24.578Z,46.51
2022-08-17T00:34:28.043Z,47.47
2022-08-17T00:37:36.612Z,47.73
2022-08-17T00:40:44.421Z,47.88
2022-08-17T00:43:50.601Z,49.29
2022-08-17T00:46:54.018Z,48.96
2022-08-17T00:49:57.331Z,49.27
2022-08-17T00:53:02.614Z,49.54
2022-08-17T00:56:09.367Z,49.58
2022-08-17T00:59:15.514Z,50.32
2022-08-17T01:02:20.094Z,49.69
2022-08-17T01:05:27.884Z,50.33
2022-08-17T01:08:34.520Z,49.98
2022-08-17T01:11:40.660Z,50.23
2022-08-17T01:14:44.505Z,50.52
2022-08-17T01:17:48.276Z,50.17
2022-08-17T01:20:54.647Z,50.12
2022-08-17T01:23:59.650Z,49.55
2022-08-17T01:27:04.179Z,49.01
2022-08-17T01:30:58.255Z,49.78
2022-08-17T01:33:38.495Z,50.10
2022-08-17T01:36:44.750Z,49.71
2022-08-17T01:39:53.800Z,49.95
2022-08-17T01:43:01.195Z,50.15
2022-08-17T01:46:04.702Z,50.11
2022-08-17T01:49:09.936Z,50.23
2022-08-17T01:52:14.085Z,50.53
2022-08-17T01:55:27.350Z,50.79
2022-08-17T01:58:30.879Z,50.79
2022-08-17T02:01:35.836Z,50.96
2022-08-17T02:04:39.298Z,51.42
2022-08-17T02:07:59.752Z,50.66
2022-08-17T02:11:11.281Z,51.04
2022-08-17T02:14:15.473Z,51.28
2022-08-17T02:17:18.872Z,51.62
2022-08-17T02:20:41.529Z,51.22
2022-08-17T02:23:49.829Z,51.88
2022-08-17T02:26:54.550Z,51.55
2022-08-17T02:29:58.037Z,52.28
2022-08-17T02:33:04.217Z,52.26
2022-08-17T02:36:10.500Z,52.19
2022-08-17T02:39:14.307Z,52.12
2022-08-17T02:42:19.089Z,52.08
2022-08-17T02:45:25.468Z,52.24
2022-08-17T02:48:31.172Z,51.75
2022-08-17T02:51:35.650Z,51.74
2022-08-17T02:54:42.062Z,51.56
2022-08-17T02:57:47.614Z,50.66
2022-08-17T03:00:50.953Z,50.67
2022-08-17T03:03:54.615Z,50.33
2022-08-17T03:06:57.932Z,50.70
2022-08-17T03:10:01.311Z,51.32
2022-08-17T03:13:06.482Z,51.39
2022-08-17T03:16:10.020Z,50.75
2022-08-17T03:19:13.439Z,51.07
2022-08-17T03:22:35.614Z,51.03
2022-08-17T03:25:44.187Z,51.59
2022-08-17T03:28:48.990Z,52.42
2022-08-17T03:31:52.494Z,51.67
2022-08-17T03:34:59.727Z,52.52
2022-08-17T03:38:03.777Z,52.79
2022-08-17T03:41:07.951Z,53.24
2022-08-17T03:44:12.651Z,53.17
2022-08-17T03:47:33.481Z,53.62
2022-08-17T03:50:54.204Z,53.95
2022-08-17T03:54:18.011Z,53.35
2022-08-17T03:57:21.648Z,52.59
2022-08-17T04:00:27.732Z,52.17
2022-08-17T04:03:31.313Z,51.59
2022-08-17T04:06:35.020Z,50.14
2022-08-17T04:09:38.343Z,49.00
2022-08-17T04:12:47.049Z,48.70
2022-08-17T04:15:52.005Z,49.18
2022-08-17T04:18:55.484Z,48.66
2022-08-17T04:22:00.083Z,49.08
2022-08-17T04:25:07.694Z,48.93
2022-08-17T04:28:16.195Z,48.55
2022-08-17T04:31:21.392Z,49.32
2022-08-17T04:34:25.327Z,49.85
2022-08-17T04:37:28.763Z,49.79
2022-08-17T04:40:49.655Z,50.26
2022-08-17T04:43:56.144Z,50.23
2022-08-17T04:47:00.868Z,49.69
2022-08-17T04:50:04.582Z,48.92
2022-08-17T04:53:07.919Z,48.89
2022-08-17T04:56:16.916Z,48.63
2022-08-17T04:59:23.284Z,48.78
2022-08-17T05:02:28.054Z,48.61
2022-08-17T05:05:34.280Z,47.52
2022-08-17T05:08:37.649Z,48.24
2022-08-17T05:11:44.952Z,48.21
2022-08-17T05:14:48.489Z,47.71
2022-08-17T05:17:53.161Z,47.46
2022-08-17T05:20:56.698Z,47.48
2022-08-17T05:24:01.017Z,47.43
2022-08-17T05:27:09.329Z,47.21
2022-08-17T05:30:14.181Z,47.38
2022-08-17T05:33:21.352Z,46.71
2022-08-17T05:36:42.737Z,46.44
2022-08-17T05:39:47.660Z,45.66
2022-08-17T05:42:51.830Z,46.42
2022-08-17T05:46:02.807Z,46.22
2022-08-17T05:49:09.144Z,45.42
2022-08-17T05:52:25.681Z,44.33
2022-08-17T05:55:39.914Z,43.45
2022-08-17T05:58:54.228Z,43.40
2022-08-17T06:02:06.943Z,43.74
2022-08-17T06:05:34.380Z,43.50
2022-08-17T06:08:51.550Z,43.06
2022-08-17T06:12:00.218Z,43.25
2022-08-17T06:15:19.550Z,42.74
2022-08-17T06:18:27.764Z,43.36
2022-08-17T06:21:37.099Z,42.02
2022-08-17T06:24:44.453Z,41.17
2022-08-17T06:27:53.707Z,40.41
2022-08-17T06:31:01.470Z,40.64
2022-08-17T06:34:09.843Z,39.77
2022-08-17T06:37:32.417Z,39.86
2022-08-17T06:41:00.477Z,39.66
2022-08-17T06:44:43.152Z,38.84
2022-08-17T06:47:54.011Z,38.99
2022-08-17T06:51:02.073Z,38.26
2022-08-17T06:54:14.777Z,38.47
2022-08-17T06:57:23.720Z,38.23
2022-08-17T07:00:33.689Z,37.76
2022-08-17T07:03:47.748Z,37.75
2022-08-17T07:06:53.767Z,37.01
2022-08-17T07:10:02.504Z,36.25
2022-08-17T07:13:29.605Z,37.13
2022-08-17T07:16:45.814Z,37.17
2022-08-17T07:19:51.268Z,37.54
2022-08-17T07:23:05.767Z,37.22
2022-08-17T07:26:13.418Z,37.26
2022-08-17T07:29:20.051Z,36.92
2022-08-17T07:32:27.452Z,36.20
2022-08-17T07:35:40.752Z,35.77
2022-08-17T07:38:58.002Z,34.80
2022-08-17T07:42:06.406Z,34.97
2022-08-17T07:45:31.332Z,35.30
2022-08-17T07:48:37.399Z,34.69
2022-08-17T07:51:55.481Z,35.27
2022-08-17T07:55:00.566Z,35.47
2022-08-17T07:58:05.752Z,34.15
2022-08-17T08:01:15.657Z,33.88
2022-08-17T08:04:59.037Z,33.88
2022-08-17T08:07:57.153Z,33.71
2022-08-17T08:11:08.110Z,33.79
2022-08-17T08:14:28.439Z,33.31
2022-08-17T08:17:35.913Z,33.61
2022-08-17T08:20:53.494Z,32.60
2022-08-17T08:24:18.404Z,31.90
2022-08-17T08:27:32.183Z,31.86
2022-08-17T08:30:46.771Z,31.74
2022-08-17T08:34:01.152Z,31.23
2022-08-17T08:37:20.670Z,30.80
2022-08-17T08:40:48.596Z,30.48
2022-08-17T08:44:06.165Z,30.76
2022-08-17T08:47:20.770Z,30.04
2022-08-17T08:50:37.840Z,31.12
2022-08-17T08:53:52.069Z,30.47
2022-08-17T09:00:35.928Z,28.33
2022-08-17T09:03:55.002Z,27.21
2022-08-17T09:07:15.781Z,27.48
2022-08-17T09:10:26.080Z,26.88
2022-08-17T09:13:38.111Z,27.97
2022-08-17T09:16:50.304Z,27.82
2022-08-17T09:20:02.197Z,27.26
2022-08-17T09:23:11.927Z,27.33
2022-08-17T09:26:22.989Z,27.76
2022-08-17T09:29:30.075Z,27.33
2022-08-17T09:32:40.561Z,26.84
2022-08-17T09:35:53.571Z,27.60
2022-08-17T09:39:03.495Z,27.33
2022-08-17T09:42:14.933Z,27.54
2022-08-17T09:45:29.237Z,27.12
2022-08-17T09:48:38.926Z,26.68
2022-08-17T09:51:49.122Z,26.53
2022-08-17T09:54:55.945Z,26.93
2022-08-17T09:58:06.217Z,26.80
2022-08-17T10:01:20.487Z,27.08
2022-08-17T10:04:46.969Z,26.12
2022-08-17T10:07:58.196Z,25.83
2022-08-17T10:11:13.669Z,24.78
2022-08-17T10:14:36.227Z,24.76
2022-08-17T10:17:54.106Z,25.23
2022-08-17T10:21:19.849Z,25.34
2022-08-17T10:25:20.947Z,24.92
2022-08-17T10:28:19.979Z,24.52
2022-08-17T10:31:36.464Z,25.05
2022-08-17T10:35:03.901Z,25.17
2022-08-17T10:38:46.205Z,25.46
2022-08-17T10:41:55.381Z,24.91
2022-08-17T10:45:02.893Z,24.76
2022-08-17T10:48:29.017Z,24.93
2022-08-17T10:51:38.505Z,25.34
2022-08-17T10:54:49.442Z,25.24
2022-08-17T10:58:21.106Z,24.57
2022-08-17T11:02:05.567Z,24.90
2022-08-17T11:05:52.338Z,24.79
2022-08-17T11:09:21.164Z,24.84
2022-08-17T11:12:38.778Z,25.13
2022-08-17T11:15:59.947Z,24.72
2022-08-17T11:19:34.981Z,23.75
2022-08-17T11:23:20.049Z,24.27
2022-08-17T11:26:27.123Z,24.44
2022-08-17T11:29:36.865Z,24.21
2022-08-17T11:32:48.669Z,23.67
2022-08-17T11:36:06.506Z,24.12
2022-08-17T11:39:30.058Z,23.12
2022-08-17T11:42:49.106Z,23.31
2022-08-17T11:46:16.143Z,23.36
2022-08-17T11:49:45.096Z,23.34
2022-08-17T11:52:50.226Z,23.50
2022-08-17T11:56:05.244Z,23.58
2022-08-17T11:59:46.115Z,23.74
2022-08-17T12:02:49.579Z,23.72
2022-08-17T12:06:04.043Z,23.90
2022-08-17T12:09:12.118Z,23.56
2022-08-17T12:12:18.970Z,23.41
2022-08-17T12:15:30.208Z,22.79
2022-08-17T12:18:38.475Z,23.07
2022-08-17T12:21:53.947Z,22.79
2022-08-17T12:25:05.004Z,22.56
2022-08-17T12:28:23.460Z,22.76
2022-08-17T12:31:30.088Z,22.69
2022-08-17T12:34:38.465Z,21.71
2022-08-17T12:37:48.291Z,22.77
2022-08-17T12:40:58.095Z,23.07
2022-08-17T12:44:04.362Z,22.60
2022-08-17T12:47:21.018Z,23.02
2022-08-17T12:50:28.601Z,22.92
2022-08-17T12:53:40.063Z,22.91
2022-08-17T12:56:47.507Z,22.92
2022-08-17T12:59:55.945Z,23.43
2022-08-17T13:03:02.514Z,23.04
2022-08-17T13:06:08.800Z,22.66
2022-08-17T13:09:15.401Z,22.61
2022-08-17T13:12:28.119Z,23.21
2022-08-17T13:15:37.087Z,23.19
2022-08-17T13:18:43.643Z,22.68
2022-08-17T13:21:49.290Z,22.92
2022-08-17T13:24:56.435Z,22.89
2022-08-17T13:28:00.443Z,22.53
2022-08-17T13:31:24.322Z,22.47
2022-08-17T13:34:49.614Z,22.32
2022-08-17T13:38:03.161Z,22.03
2022-08-17T13:41:08.119Z,22.30
2022-08-17T13:44:34.899Z,22.15
2022-08-17T13:47:38.277Z,22.35
2022-08-17T13:50:45.158Z,22.03
2022-08-17T13:53:58.351Z,22.43
2022-08-17T13:57:06.698Z,22.11
2022-08-17T14:00:17.568Z,22.38
2022-08-17T14:03:21.895Z,22.49
2022-08-17T14:06:52.354Z,22.56
2022-08-17T14:09:54.525Z,22.73
2022-08-17T14:12:59.683Z,23.07
2022-08-17T14:16:03.104Z,23.00
2022-08-17T14:19:06.389Z,23.01
2022-08-17T14:22:16.186Z,23.04
2022-08-17T14:25:23.054Z,21.94
2022-08-17T14:28:27.901Z,22.51
2022-08-17T14:31:36.826Z,22.23
2022-08-17T14:34:40.814Z,22.17
2022-08-17T14:37:45.757Z,22.66
2022-08-17T14:40:50.622Z,23.61
2022-08-17T14:43:55.358Z,24.83
2022-08-17T14:46:58.768Z,25.01
2022-08-17T14:50:02.911Z,24.91
2022-08-17T14:53:07.771Z,25.45
2022-08-17T14:56:11.144Z,25.38
2022-08-17T14:59:16.313Z,25.19
2022-08-17T15:02:19.876Z,24.69
2022-08-17T15:05:24.681Z,24.41
2022-08-17T15:08:30.057Z,24.51
2022-08-17T15:11:33.451Z,23.91
2022-08-17T15:14:38.185Z,23.53
2022-08-17T15:17:43.915Z,24.09
2022-08-17T15:20:50.327Z,24.42
2022-08-17T15:23:53.658Z,24.28
2022-08-17T15:26:57.141Z,24.31
2022-08-17T15:30:01.940Z,23.92
2022-08-17T15:33:05.515Z,24.49
2022-08-17T15:36:09.816Z,24.67
2022-08-17T15:39:13.232Z,24.95
2022-08-17T15:42:18.023Z,24.97
2022-08-17T15:45:28.427Z,25.42
2022-08-17T15:48:43.902Z,25.57
2022-08-17T15:51:47.230Z,26.35
2022-08-17T15:54:52.290Z,26.26
2022-08-17T15:57:55.638Z,27.30
2022-08-17T16:01:14.738Z,26.90
2022-08-17T16:04:30.018Z,27.14
2022-08-17T16:07:33.977Z,27.21
2022-08-17T16:10:37.853Z,26.70
2022-08-17T16:13:41.728Z,26.76
2022-08-17T16:16:52.158Z,26.88
2022-08-17T16:19:56.092Z,26.88
2022-08-17T16:22:59.454Z,27.73
2022-08-17T16:26:02.810Z,27.63
2022-08-17T16:29:08.318Z,28.08
2022-08-17T16:32:16.088Z,28.31
2022-08-17T16:35:22.145Z,28.91
2022-08-17T16:38:26.124Z,28.79
2022-08-17T16:41:45.174Z,29.30
2022-08-17T16:44:48.988Z,29.35
2022-08-17T16:47:54.812Z,29.35
2022-08-17T16:51:03.032Z,29.29
2022-08-17T16:54:08.761Z,29.28
2022-08-17T16:57:12.821Z,29.25
2022-08-17T17:00:19.412Z,29.12
2022-08-17T17:03:28.281Z,29.43
2022-08-17T17:06:41.621Z,29.68
2022-08-17T17:09:48.804Z,30.31
2022-08-17T17:13:01.466Z,30.94
2022-08-17T17:16:18.258Z,31.08
2022-08-17T17:19:34.453Z,31.45
2022-08-17T17:22:47.194Z,31.92
2022-08-17T17:25:59.332Z,31.71
2022-08-17T17:29:19.599Z,32.00
2022-08-17T17:32:37.967Z,31.91
2022-08-17T17:35:51.531Z,32.42
2022-08-17T17:39:00.491Z,32.51
2022-08-17T17:42:07.781Z,32.78
2022-08-17T17:45:19.980Z,33.29
2022-08-17T17:48:23.780Z,32.96
2022-08-17T17:52:06.662Z,32.98
2022-08-17T17:55:13.390Z,32.75
2022-08-17T17:58:29.181Z,33.33
2022-08-17T18:01:46.261Z,33.54
2022-08-17T18:05:01.236Z,34.17
2022-08-17T18:08:16.611Z,34.52
2022-08-17T18:11:37.137Z,34.17
2022-08-17T18:14:56.152Z,34.58
2022-08-17T18:18:38.086Z,34.46
2022-08-17T18:21:45.950Z,34.39
2022-08-17T18:24:56.553Z,34.61
2022-08-17T18:27:59.914Z,34.71
2022-08-17T18:31:10.192Z,34.40
2022-08-17T18:34:45.812Z,34.50
2022-08-17T18:37:51.296Z,34.60
2022-08-17T18:41:03.625Z,35.07
2022-08-17T18:44:22.411Z,34.70
2022-08-17T18:47:27.993Z,34.75
2022-08-17T18:50:39.722Z,34.99
2022-08-17T18:53:43.147Z,35.10
2022-08-17T18:56:54.862Z,35.18
2022-08-17T18:59:58.276Z,35.00
2022-08-17T19:03:04.245Z,35.66
2022-08-17T19:06:23.895Z,36.36
2022-08-17T19:09:34.321Z,35.72
2022-08-17T19:12:45.301Z,36.11
2022-08-17T19:16:12.010Z,36.01
2022-08-17T19:19:23.418Z,35.76
2022-08-17T19:22:31.228Z,35.90
2022-08-17T19:25:39.474Z,35.31
2022-08-17T19:28:48.668Z,35.68
2022-08-17T19:31:55.320Z,36.04
2022-08-17T19:35:00.650Z,35.81
2022-08-17T19:38:12.943Z,36.50
2022-08-17T19:41:23.924Z,36.03
2022-08-17T19:44:50.387Z,37.62
2022-08-17T19:48:03.038Z,37.14
2022-08-17T19:51:12.558Z,37.40
2022-08-17T19:54:22.838Z,37.59
2022-08-17T19:57:34.697Z,37.49
2022-08-17T20:00:46.985Z,37.98
2022-08-17T20:03:59.067Z,37.50
2022-08-17T20:07:07.485Z,38.27
2022-08-17T20:10:20.687Z,37.49
2022-08-17T20:13:33.358Z,38.29
2022-08-17T20:16:38.602Z,38.50
2022-08-17T20:19:52.189Z,38.66
2022-08-17T20:23:03.776Z,39.28
2022-08-17T20:26:20.043Z,38.84
2022-08-17T20:29:37.472Z,39.37
2022-08-17T20:32:55.390Z,39.30
2022-08-17T20:36:06.043Z,39.20
2022-08-17T20:39:32.115Z,39.85
2022-08-17T20:42:39.097Z,39.88
2022-08-17T20:46:16.919Z,40.11
2022-08-17T20:49:28.272Z,40.50
2022-08-17T20:52:52.769Z,40.70
2022-08-17T20:55:57.122Z,40.64
2022-08-17T20:59:01.345Z,41.51
2022-08-17T21:02:18.519Z,41.34
2022-08-17T21:05:34.602Z,41.16
2022-08-17T21:08:45.711Z,41.70
2022-08-17T21:12:04.210Z,41.29
2022-08-17T21:15:13.041Z,41.55
2022-08-17T21:18:27.480Z,41.45
2022-08-17T21:21:47.191Z,41.73
2022-08-17T21:24:59.932Z,41.10
2022-08-17T21:28:12.975Z,40.89
2022-08-17T21:31:33.202Z,41.45
2022-08-17T21:34:39.292Z,42.17
2022-08-17T21:37:48.074Z,42.12
2022-08-17T21:40:53.436Z,42.10
2022-08-17T21:44:05.221Z,42.36
2022-08-17T21:47:19.541Z,42.69
2022-08-17T21:50:25.686Z,42.63
2022-08-17T21:53:39.985Z,43.75
2022-08-17T21:56:48.317Z,43.49
2022-08-17T21:59:57.650Z,43.17
2022-08-17T22:03:04.176Z,43.75
2022-08-17T22:06:22.455Z,43.53
2022-08-17T22:09:29.724Z,43.82
2022-08-17T22:12:35.095Z,44.04
2022-08-17T22:15:39.940Z,44.39
2022-08-17T22:18:44.783Z,43.60
2022-08-17T22:21:48.164Z,43.74
2022-08-17T22:24:57.575Z,43.48
2022-08-17T22:28:02.991Z,43.12
2022-08-17T22:31:09.077Z,43.72
2022-08-17T22:34:15.891Z,43.42
2022-08-17T22:37:27.492Z,43.65
2022-08-17T22:40:35.226Z,43.68
2022-08-17T22:43:43.121Z,43.78
2022-08-17T22:46:56.640Z,43.09
2022-08-17T22:50:03.198Z,43.18
2022-08-17T22:53:34.125Z,43.24
2022-08-17T22:56:57.261Z,43.03
2022-08-17T23:00:03.029Z,43.42
2022-08-17T23:03:15.371Z,43.36
2022-08-17T23:06:18.786Z,43.92
2022-08-17T23:09:22.307Z,44.10
2022-08-17T23:12:28.095Z,43.21
2022-08-17T23:15:33.568Z,43.48
2022-08-17T23:18:37.476Z,43.42
2022-08-17T23:21:41.166Z,43.56
2022-08-17T23:24:49.086Z,44.30
2022-08-17T23:27:54.596Z,43.81
2022-08-17T23:30:58.312Z,43.29
2022-08-17T23:34:02.231Z,43.28
2022-08-17T23:37:05.587Z,43.04
2022-08-17T23:40:10.382Z,43.73
2022-08-17T23:43:23.732Z,42.95
2022-08-17T23:46:28.289Z,44.01
2022-08-17T23:49:32.461Z,44.55
2022-08-17T23:52:37.867Z,44.48
2022-08-17T23:55:41.207Z,44.58
2022-08-17T23:58:46.588Z,44.51
